sensor_id;sensor_type;location;lat;lon;timestamp;P1;durP1;ratioP1;P2;durP2;ratioP2
2762;SDS011;1389;51.490;7.338;2022-07-01T00:00:04;89.90;;;14.20;;
2762;SDS011;1389;51.490;7.338;2022-07-01T00:02:31;91.57;;;15.48;;
2762;SDS011;1389;51.490;7.338;2022-07-01T00:04:57;93.40;;;15.05;;
2762;SDS011;1389;51.490;7.338;2022-07-01T00:07:23;89.60;;;14.10;;
2762;SDS011;1389;51.490;7.338;2022-07-01T00:09:49;90.35;;;14.40;;
2762;SDS011;1389;51.490;7.338;2022-07-01T00:12:16;91.55;;;15.00;;
2762;SDS011;1389;51.490;7.338;2022-07-01T00:14:42;91.25;;;15.10;;
2762;SDS011;1389;51.490;7.338;2022-07-01T00:17:08;91.10;;;14.05;;
2762;SDS011;1389;51.490;7.338;2022-07-01T00:19:34;91.25;;;15.10;;
2762;SDS011;1389;51.490;7.338;2022-07-01T00:22:00;92.63;;;15.25;;
2762;SDS011;1389;51.490;7.338;2022-07-01T00:24:26;91.97;;;15.40;;
2762;SDS011;1389;51.490;7.338;2022-07-01T00:26:53;92.35;;;15.82;;
2762;SDS011;1389;51.490;7.338;2022-07-01T00:29:20;93.93;;;15.25;;
2762;SDS011;1389;51.490;7.338;2022-07-01T00:31:46;96.05;;;15.25;;
2762;SDS011;1389;51.490;7.338;2022-07-01T00:34:12;92.38;;;15.45;;
2762;SDS011;1389;51.490;7.338;2022-07-01T00:36:38;92.93;;;15.95;;
2762;SDS011;1389;51.490;7.338;2022-07-01T00:39:04;91.57;;;15.00;;
2762;SDS011;1389;51.490;7.338;2022-07-01T00:41:31;92.00;;;15.50;;
2762;SDS011;1389;51.490;7.338;2022-07-01T00:43:57;92.95;;;15.95;;
2762;SDS011;1389;51.490;7.338;2022-07-01T00:46:24;94.20;;;16.05;;
2762;SDS011;1389;51.490;7.338;2022-07-01T00:48:51;93.88;;;14.80;;
2762;SDS011;1389;51.490;7.338;2022-07-01T00:51:19;95.43;;;15.70;;
2762;SDS011;1389;51.490;7.338;2022-07-01T00:53:46;93.88;;;16.58;;
2762;SDS011;1389;51.490;7.338;2022-07-01T00:56:12;95.77;;;17.10;;
2762;SDS011;1389;51.490;7.338;2022-07-01T00:58:39;94.65;;;16.85;;
2762;SDS011;1389;51.490;7.338;2022-07-01T01:01:05;96.00;;;17.10;;
2762;SDS011;1389;51.490;7.338;2022-07-01T01:03:31;93.80;;;15.18;;
2762;SDS011;1389;51.490;7.338;2022-07-01T01:05:58;97.97;;;17.90;;
2762;SDS011;1389;51.490;7.338;2022-07-01T01:08:24;99.60;;;18.27;;
2762;SDS011;1389;51.490;7.338;2022-07-01T01:10:51;107.13;;;17.98;;
2762;SDS011;1389;51.490;7.338;2022-07-01T01:13:18;97.30;;;17.60;;
2762;SDS011;1389;51.490;7.338;2022-07-01T01:15:44;108.10;;;17.20;;
2762;SDS011;1389;51.490;7.338;2022-07-01T01:18:10;104.63;;;17.20;;
2762;SDS011;1389;51.490;7.338;2022-07-01T01:20:37;106.68;;;18.15;;
2762;SDS011;1389;51.490;7.338;2022-07-01T01:23:03;107.10;;;18.00;;
2762;SDS011;1389;51.490;7.338;2022-07-01T01:25:30;107.22;;;18.50;;
2762;SDS011;1389;51.490;7.338;2022-07-01T01:27:57;107.97;;;18.63;;
2762;SDS011;1389;51.490;7.338;2022-07-01T01:30:23;109.78;;;19.40;;
2762;SDS011;1389;51.490;7.338;2022-07-01T01:32:49;108.72;;;18.77;;
2762;SDS011;1389;51.490;7.338;2022-07-01T01:35:16;125.03;;;20.33;;
2762;SDS011;1389;51.490;7.338;2022-07-01T01:37:42;107.75;;;18.90;;
2762;SDS011;1389;51.490;7.338;2022-07-01T01:40:09;109.07;;;19.02;;
2762;SDS011;1389;51.490;7.338;2022-07-01T01:42:35;112.10;;;19.13;;
2762;SDS011;1389;51.490;7.338;2022-07-01T01:45:02;109.55;;;19.27;;
2762;SDS011;1389;51.490;7.338;2022-07-01T01:47:28;109.40;;;18.17;;
2762;SDS011;1389;51.490;7.338;2022-07-01T01:49:55;110.80;;;19.20;;
2762;SDS011;1389;51.490;7.338;2022-07-01T01:52:21;110.25;;;19.10;;
2762;SDS011;1389;51.490;7.338;2022-07-01T01:54:47;109.63;;;20.10;;
2762;SDS011;1389;51.490;7.338;2022-07-01T01:57:13;109.25;;;19.60;;
2762;SDS011;1389;51.490;7.338;2022-07-01T01:59:39;111.10;;;19.90;;
2762;SDS011;1389;51.490;7.338;2022-07-01T02:02:05;105.93;;;18.77;;
2762;SDS011;1389;51.490;7.338;2022-07-01T02:04:32;108.93;;;19.63;;
2762;SDS011;1389;51.490;7.338;2022-07-01T02:06:58;110.60;;;20.52;;
2762;SDS011;1389;51.490;7.338;2022-07-01T02:09:25;109.53;;;19.67;;
2762;SDS011;1389;51.490;7.338;2022-07-01T02:11:51;111.57;;;19.90;;
2762;SDS011;1389;51.490;7.338;2022-07-01T02:14:18;106.38;;;18.40;;
2762;SDS011;1389;51.490;7.338;2022-07-01T02:16:44;108.60;;;20.05;;
2762;SDS011;1389;51.490;7.338;2022-07-01T02:19:10;106.05;;;18.50;;
2762;SDS011;1389;51.490;7.338;2022-07-01T02:21:36;108.07;;;19.08;;
2762;SDS011;1389;51.490;7.338;2022-07-01T02:24:02;108.33;;;19.03;;
2762;SDS011;1389;51.490;7.338;2022-07-01T02:26:28;107.97;;;18.80;;
2762;SDS011;1389;51.490;7.338;2022-07-01T02:28:54;106.03;;;18.00;;
2762;SDS011;1389;51.490;7.338;2022-07-01T02:31:20;106.25;;;18.10;;
2762;SDS011;1389;51.490;7.338;2022-07-01T02:33:46;105.90;;;18.45;;
2762;SDS011;1389;51.490;7.338;2022-07-01T02:36:13;106.40;;;18.48;;
2762;SDS011;1389;51.490;7.338;2022-07-01T02:38:39;106.82;;;18.48;;
2762;SDS011;1389;51.490;7.338;2022-07-01T02:41:05;104.22;;;17.52;;
2762;SDS011;1389;51.490;7.338;2022-07-01T02:43:31;108.00;;;18.52;;
2762;SDS011;1389;51.490;7.338;2022-07-01T02:45:57;105.88;;;17.70;;
2762;SDS011;1389;51.490;7.338;2022-07-01T02:48:23;105.53;;;17.80;;
2762;SDS011;1389;51.490;7.338;2022-07-01T02:50:50;106.60;;;18.48;;
2762;SDS011;1389;51.490;7.338;2022-07-01T02:53:16;106.40;;;18.52;;
2762;SDS011;1389;51.490;7.338;2022-07-01T02:55:42;107.38;;;17.52;;
2762;SDS011;1389;51.490;7.338;2022-07-01T02:58:08;105.97;;;18.13;;
2762;SDS011;1389;51.490;7.338;2022-07-01T03:00:34;103.80;;;17.20;;
2762;SDS011;1389;51.490;7.338;2022-07-01T03:03:00;103.50;;;15.70;;
2762;SDS011;1389;51.490;7.338;2022-07-01T03:05:26;101.15;;;16.02;;
2762;SDS011;1389;51.490;7.338;2022-07-01T03:07:52;104.85;;;16.38;;
2762;SDS011;1389;51.490;7.338;2022-07-01T03:10:18;103.88;;;16.80;;
2762;SDS011;1389;51.490;7.338;2022-07-01T03:12:44;105.60;;;16.73;;
2762;SDS011;1389;51.490;7.338;2022-07-01T03:15:11;101.45;;;15.68;;
2762;SDS011;1389;51.490;7.338;2022-07-01T03:17:44;104.28;;;16.67;;
2762;SDS011;1389;51.490;7.338;2022-07-01T03:20:12;108.53;;;17.58;;
2762;SDS011;1389;51.490;7.338;2022-07-01T03:22:40;106.90;;;17.70;;
2762;SDS011;1389;51.490;7.338;2022-07-01T03:25:07;105.93;;;17.60;;
2762;SDS011;1389;51.490;7.338;2022-07-01T03:27:34;105.70;;;17.40;;
2762;SDS011;1389;51.490;7.338;2022-07-01T03:30:01;108.15;;;18.00;;
2762;SDS011;1389;51.490;7.338;2022-07-01T03:32:28;106.88;;;16.77;;
2762;SDS011;1389;51.490;7.338;2022-07-01T03:34:54;105.70;;;16.70;;
2762;SDS011;1389;51.490;7.338;2022-07-01T03:37:20;107.45;;;16.40;;
2762;SDS011;1389;51.490;7.338;2022-07-01T03:39:48;104.10;;;17.03;;
2762;SDS011;1389;51.490;7.338;2022-07-01T03:42:15;108.22;;;17.13;;
2762;SDS011;1389;51.490;7.338;2022-07-01T03:44:41;108.95;;;16.65;;
2762;SDS011;1389;51.490;7.338;2022-07-01T03:47:10;104.90;;;16.83;;
2762;SDS011;1389;51.490;7.338;2022-07-01T03:49:36;103.90;;;16.90;;
2762;SDS011;1389;51.490;7.338;2022-07-01T03:52:03;108.38;;;16.90;;
2762;SDS011;1389;51.490;7.338;2022-07-01T03:54:29;104.78;;;16.85;;
2762;SDS011;1389;51.490;7.338;2022-07-01T03:57:02;103.43;;;16.35;;
2762;SDS011;1389;51.490;7.338;2022-07-01T03:59:34;104.95;;;15.95;;
2762;SDS011;1389;51.490;7.338;2022-07-01T04:02:02;106.90;;;16.55;;
2762;SDS011;1389;51.490;7.338;2022-07-01T04:04:29;105.45;;;16.90;;
2762;SDS011;1389;51.490;7.338;2022-07-01T04:06:55;108.00;;;17.02;;
2762;SDS011;1389;51.490;7.338;2022-07-01T04:09:24;104.65;;;16.88;;
2762;SDS011;1389;51.490;7.338;2022-07-01T04:11:51;105.68;;;17.27;;
2762;SDS011;1389;51.490;7.338;2022-07-01T04:14:17;105.57;;;16.90;;
2762;SDS011;1389;51.490;7.338;2022-07-01T04:16:44;104.22;;;16.92;;
2762;SDS011;1389;51.490;7.338;2022-07-01T04:19:10;106.93;;;17.80;;
2762;SDS011;1389;51.490;7.338;2022-07-01T04:21:38;109.55;;;18.40;;
2762;SDS011;1389;51.490;7.338;2022-07-01T04:24:23;108.40;;;18.10;;
2762;SDS011;1389;51.490;7.338;2022-07-01T04:26:50;107.05;;;18.50;;
2762;SDS011;1389;51.490;7.338;2022-07-01T04:29:17;108.53;;;17.10;;
2762;SDS011;1389;51.490;7.338;2022-07-01T04:31:44;109.53;;;18.80;;
2762;SDS011;1389;51.490;7.338;2022-07-01T04:34:10;109.13;;;18.00;;
2762;SDS011;1389;51.490;7.338;2022-07-01T04:36:36;104.90;;;17.50;;
2762;SDS011;1389;51.490;7.338;2022-07-01T04:39:04;106.28;;;18.08;;
2762;SDS011;1389;51.490;7.338;2022-07-01T04:41:31;107.70;;;17.40;;
2762;SDS011;1389;51.490;7.338;2022-07-01T04:44:16;106.05;;;17.60;;
2762;SDS011;1389;51.490;7.338;2022-07-01T04:46:44;110.22;;;18.08;;
2762;SDS011;1389;51.490;7.338;2022-07-01T04:49:10;105.53;;;18.50;;
2762;SDS011;1389;51.490;7.338;2022-07-01T04:51:36;103.80;;;17.15;;
2762;SDS011;1389;51.490;7.338;2022-07-01T04:54:03;105.70;;;18.20;;
2762;SDS011;1389;51.490;7.338;2022-07-01T04:56:31;106.90;;;17.90;;
2762;SDS011;1389;51.490;7.338;2022-07-01T04:58:59;108.15;;;17.88;;
2762;SDS011;1389;51.490;7.338;2022-07-01T05:01:26;105.05;;;17.45;;
2762;SDS011;1389;51.490;7.338;2022-07-01T05:03:53;103.80;;;17.40;;
2762;SDS011;1389;51.490;7.338;2022-07-01T05:06:20;105.65;;;17.73;;
2762;SDS011;1389;51.490;7.338;2022-07-01T05:08:46;104.60;;;18.20;;
2762;SDS011;1389;51.490;7.338;2022-07-01T05:11:12;105.50;;;17.90;;
2762;SDS011;1389;51.490;7.338;2022-07-01T05:13:38;105.05;;;16.20;;
2762;SDS011;1389;51.490;7.338;2022-07-01T05:16:04;104.15;;;17.90;;
2762;SDS011;1389;51.490;7.338;2022-07-01T05:18:31;109.35;;;18.67;;
2762;SDS011;1389;51.490;7.338;2022-07-01T05:21:16;107.47;;;18.17;;
2762;SDS011;1389;51.490;7.338;2022-07-01T05:24:01;106.20;;;17.70;;
2762;SDS011;1389;51.490;7.338;2022-07-01T05:26:27;105.32;;;18.00;;
2762;SDS011;1389;51.490;7.338;2022-07-01T05:28:53;105.68;;;17.95;;
2762;SDS011;1389;51.490;7.338;2022-07-01T05:31:19;105.38;;;17.63;;
2762;SDS011;1389;51.490;7.338;2022-07-01T05:33:46;104.47;;;18.10;;
2762;SDS011;1389;51.490;7.338;2022-07-01T05:36:12;106.43;;;17.90;;
2762;SDS011;1389;51.490;7.338;2022-07-01T05:38:38;109.32;;;18.58;;
2762;SDS011;1389;51.490;7.338;2022-07-01T05:41:05;108.18;;;18.55;;
2762;SDS011;1389;51.490;7.338;2022-07-01T05:43:32;104.65;;;18.20;;
2762;SDS011;1389;51.490;7.338;2022-07-01T05:45:58;104.53;;;17.87;;
2762;SDS011;1389;51.490;7.338;2022-07-01T05:48:25;107.32;;;18.73;;
2762;SDS011;1389;51.490;7.338;2022-07-01T05:50:51;105.68;;;17.80;;
2762;SDS011;1389;51.490;7.338;2022-07-01T05:53:17;105.38;;;18.42;;
2762;SDS011;1389;51.490;7.338;2022-07-01T05:55:44;108.75;;;19.00;;
2762;SDS011;1389;51.490;7.338;2022-07-01T05:58:11;105.73;;;18.37;;
2762;SDS011;1389;51.490;7.338;2022-07-01T06:00:41;106.43;;;18.35;;
2762;SDS011;1389;51.490;7.338;2022-07-01T06:03:11;105.97;;;17.92;;
2762;SDS011;1389;51.490;7.338;2022-07-01T06:05:40;104.68;;;18.33;;
2762;SDS011;1389;51.490;7.338;2022-07-01T06:08:07;111.07;;;18.80;;
2762;SDS011;1389;51.490;7.338;2022-07-01T06:10:33;106.30;;;18.50;;
2762;SDS011;1389;51.490;7.338;2022-07-01T06:13:00;103.77;;;18.13;;
2762;SDS011;1389;51.490;7.338;2022-07-01T06:15:27;106.90;;;18.92;;
2762;SDS011;1389;51.490;7.338;2022-07-01T06:17:53;106.00;;;18.70;;
2762;SDS011;1389;51.490;7.338;2022-07-01T06:20:20;108.35;;;19.23;;
2762;SDS011;1389;51.490;7.338;2022-07-01T06:22:46;105.38;;;18.42;;
2762;SDS011;1389;51.490;7.338;2022-07-01T06:25:12;110.68;;;19.05;;
2762;SDS011;1389;51.490;7.338;2022-07-01T06:27:38;111.00;;;19.60;;
2762;SDS011;1389;51.490;7.338;2022-07-01T06:30:05;111.68;;;19.83;;
2762;SDS011;1389;51.490;7.338;2022-07-01T06:32:32;106.13;;;18.38;;
2762;SDS011;1389;51.490;7.338;2022-07-01T06:34:58;107.80;;;19.50;;
2762;SDS011;1389;51.490;7.338;2022-07-01T06:37:24;111.20;;;19.65;;
2762;SDS011;1389;51.490;7.338;2022-07-01T06:39:50;107.80;;;19.30;;
2762;SDS011;1389;51.490;7.338;2022-07-01T06:42:16;110.22;;;19.70;;
2762;SDS011;1389;51.490;7.338;2022-07-01T06:44:43;107.67;;;19.77;;
2762;SDS011;1389;51.490;7.338;2022-07-01T06:47:09;111.82;;;20.10;;
2762;SDS011;1389;51.490;7.338;2022-07-01T06:49:35;108.03;;;19.00;;
2762;SDS011;1389;51.490;7.338;2022-07-01T06:52:02;112.93;;;20.20;;
2762;SDS011;1389;51.490;7.338;2022-07-01T06:54:28;109.68;;;19.65;;
2762;SDS011;1389;51.490;7.338;2022-07-01T06:56:54;108.70;;;19.90;;
2762;SDS011;1389;51.490;7.338;2022-07-01T06:59:20;106.40;;;19.38;;
2762;SDS011;1389;51.490;7.338;2022-07-01T07:01:46;108.97;;;19.27;;
2762;SDS011;1389;51.490;7.338;2022-07-01T07:04:14;104.38;;;18.23;;
2762;SDS011;1389;51.490;7.338;2022-07-01T07:06:42;107.60;;;18.52;;
2762;SDS011;1389;51.490;7.338;2022-07-01T07:09:08;106.57;;;19.00;;
2762;SDS011;1389;51.490;7.338;2022-07-01T07:11:34;108.15;;;19.20;;
2762;SDS011;1389;51.490;7.338;2022-07-01T07:14:00;112.10;;;19.42;;
2762;SDS011;1389;51.490;7.338;2022-07-01T07:16:26;107.35;;;18.90;;
2762;SDS011;1389;51.490;7.338;2022-07-01T07:18:53;105.55;;;18.00;;
2762;SDS011;1389;51.490;7.338;2022-07-01T07:21:19;104.88;;;17.50;;
2762;SDS011;1389;51.490;7.338;2022-07-01T07:23:45;107.00;;;17.13;;
2762;SDS011;1389;51.490;7.338;2022-07-01T07:26:11;106.55;;;17.45;;
2762;SDS011;1389;51.490;7.338;2022-07-01T07:28:37;104.03;;;17.55;;
2762;SDS011;1389;51.490;7.338;2022-07-01T07:31:04;104.10;;;16.70;;
2762;SDS011;1389;51.490;7.338;2022-07-01T07:33:30;106.65;;;17.50;;
2762;SDS011;1389;51.490;7.338;2022-07-01T07:35:56;102.30;;;17.10;;
2762;SDS011;1389;51.490;7.338;2022-07-01T07:38:22;104.00;;;17.15;;
2762;SDS011;1389;51.490;7.338;2022-07-01T07:40:48;103.03;;;17.13;;
2762;SDS011;1389;51.490;7.338;2022-07-01T07:43:14;103.63;;;17.17;;
2762;SDS011;1389;51.490;7.338;2022-07-01T07:45:40;104.28;;;17.00;;
2762;SDS011;1389;51.490;7.338;2022-07-01T07:48:06;101.63;;;16.50;;
2762;SDS011;1389;51.490;7.338;2022-07-01T07:50:34;104.20;;;17.30;;
2762;SDS011;1389;51.490;7.338;2022-07-01T07:53:01;102.78;;;17.02;;
2762;SDS011;1389;51.490;7.338;2022-07-01T07:55:27;102.63;;;17.15;;
2762;SDS011;1389;51.490;7.338;2022-07-01T07:57:53;103.90;;;17.48;;
2762;SDS011;1389;51.490;7.338;2022-07-01T08:00:20;103.70;;;17.60;;
2762;SDS011;1389;51.490;7.338;2022-07-01T08:02:46;110.15;;;18.80;;
2762;SDS011;1389;51.490;7.338;2022-07-01T08:05:13;104.97;;;17.45;;
2762;SDS011;1389;51.490;7.338;2022-07-01T08:07:40;108.13;;;18.10;;
2762;SDS011;1389;51.490;7.338;2022-07-01T08:10:08;106.50;;;17.83;;
2762;SDS011;1389;51.490;7.338;2022-07-01T08:12:37;102.68;;;17.20;;
2762;SDS011;1389;51.490;7.338;2022-07-01T08:15:03;103.30;;;17.20;;
2762;SDS011;1389;51.490;7.338;2022-07-01T08:17:30;106.88;;;18.67;;
2762;SDS011;1389;51.490;7.338;2022-07-01T08:19:56;105.27;;;18.60;;
2762;SDS011;1389;51.490;7.338;2022-07-01T08:22:22;106.32;;;18.60;;
2762;SDS011;1389;51.490;7.338;2022-07-01T08:24:48;106.72;;;18.80;;
2762;SDS011;1389;51.490;7.338;2022-07-01T08:27:15;107.33;;;18.60;;
2762;SDS011;1389;51.490;7.338;2022-07-01T08:29:41;106.38;;;18.20;;
2762;SDS011;1389;51.490;7.338;2022-07-01T08:32:07;105.40;;;17.70;;
2762;SDS011;1389;51.490;7.338;2022-07-01T08:34:34;103.85;;;18.50;;
2762;SDS011;1389;51.490;7.338;2022-07-01T08:37:03;104.93;;;18.40;;
2762;SDS011;1389;51.490;7.338;2022-07-01T08:39:30;104.00;;;17.95;;
2762;SDS011;1389;51.490;7.338;2022-07-01T08:41:57;108.68;;;18.23;;
2762;SDS011;1389;51.490;7.338;2022-07-01T08:44:25;102.57;;;17.60;;
2762;SDS011;1389;51.490;7.338;2022-07-01T08:46:51;106.00;;;17.60;;
2762;SDS011;1389;51.490;7.338;2022-07-01T08:49:17;102.20;;;15.57;;
2762;SDS011;1389;51.490;7.338;2022-07-01T08:51:44;100.80;;;16.23;;
2762;SDS011;1389;51.490;7.338;2022-07-01T08:54:10;105.00;;;16.60;;
2762;SDS011;1389;51.490;7.338;2022-07-01T08:56:36;104.15;;;16.95;;
2762;SDS011;1389;51.490;7.338;2022-07-01T08:59:11;103.65;;;16.52;;
2762;SDS011;1389;51.490;7.338;2022-07-01T09:01:39;101.00;;;16.27;;
2762;SDS011;1389;51.490;7.338;2022-07-01T09:04:16;103.80;;;16.70;;
2762;SDS011;1389;51.490;7.338;2022-07-01T09:06:43;103.88;;;16.60;;
2762;SDS011;1389;51.490;7.338;2022-07-01T09:09:12;105.00;;;17.17;;
2762;SDS011;1389;51.490;7.338;2022-07-01T09:11:46;102.82;;;17.30;;
2762;SDS011;1389;51.490;7.338;2022-07-01T09:14:26;103.88;;;17.02;;
2762;SDS011;1389;51.490;7.338;2022-07-01T09:16:55;102.13;;;17.25;;
2762;SDS011;1389;51.490;7.338;2022-07-01T09:19:26;101.60;;;16.50;;
2762;SDS011;1389;51.490;7.338;2022-07-01T09:21:58;102.40;;;16.30;;
2762;SDS011;1389;51.490;7.338;2022-07-01T09:26:56;102.18;;;15.88;;
2762;SDS011;1389;51.490;7.338;2022-07-01T09:29:33;100.85;;;16.00;;
2762;SDS011;1389;51.490;7.338;2022-07-01T09:32:01;103.63;;;16.00;;
2762;SDS011;1389;51.490;7.338;2022-07-01T09:34:32;104.00;;;16.77;;
2762;SDS011;1389;51.490;7.338;2022-07-01T09:37:00;103.63;;;17.48;;
2762;SDS011;1389;51.490;7.338;2022-07-01T09:39:27;104.40;;;16.42;;
2762;SDS011;1389;51.490;7.338;2022-07-01T09:41:54;102.93;;;16.70;;
2762;SDS011;1389;51.490;7.338;2022-07-01T09:44:21;103.97;;;16.60;;
2762;SDS011;1389;51.490;7.338;2022-07-01T09:46:51;106.03;;;16.20;;
2762;SDS011;1389;51.490;7.338;2022-07-01T09:49:22;100.97;;;15.48;;
2762;SDS011;1389;51.490;7.338;2022-07-01T09:51:49;101.35;;;16.30;;
2762;SDS011;1389;51.490;7.338;2022-07-01T09:54:16;101.32;;;16.10;;
2762;SDS011;1389;51.490;7.338;2022-07-01T09:56:42;100.65;;;15.60;;
2762;SDS011;1389;51.490;7.338;2022-07-01T09:59:09;101.82;;;15.40;;
2762;SDS011;1389;51.490;7.338;2022-07-01T10:01:35;99.20;;;15.00;;
2762;SDS011;1389;51.490;7.338;2022-07-01T10:04:03;99.27;;;15.00;;
2762;SDS011;1389;51.490;7.338;2022-07-01T10:09:15;99.30;;;14.90;;
2762;SDS011;1389;51.490;7.338;2022-07-01T10:15:04;98.70;;;14.90;;
2762;SDS011;1389;51.490;7.338;2022-07-01T10:17:37;98.80;;;14.73;;
2762;SDS011;1389;51.490;7.338;2022-07-01T10:20:08;99.13;;;14.52;;
2762;SDS011;1389;51.490;7.338;2022-07-01T10:22:40;98.80;;;14.87;;
2762;SDS011;1389;51.490;7.338;2022-07-01T10:36:36;99.95;;;14.60;;
2762;SDS011;1389;51.490;7.338;2022-07-01T10:41:32;99.80;;;14.80;;
2762;SDS011;1389;51.490;7.338;2022-07-01T10:44:04;99.03;;;14.10;;
2762;SDS011;1389;51.490;7.338;2022-07-01T10:46:38;99.25;;;14.38;;
2762;SDS011;1389;51.490;7.338;2022-07-01T10:49:17;99.25;;;14.40;;
2762;SDS011;1389;51.490;7.338;2022-07-01T10:52:08;100.97;;;14.68;;
2762;SDS011;1389;51.490;7.338;2022-07-01T10:59:55;99.05;;;14.30;;
2762;SDS011;1389;51.490;7.338;2022-07-01T11:02:42;97.97;;;13.20;;
2762;SDS011;1389;51.490;7.338;2022-07-01T11:05:09;99.13;;;14.00;;
2762;SDS011;1389;51.490;7.338;2022-07-01T11:07:39;102.65;;;14.10;;
2762;SDS011;1389;51.490;7.338;2022-07-01T11:10:08;100.15;;;13.60;;
2762;SDS011;1389;51.490;7.338;2022-07-01T11:12:36;100.23;;;14.07;;
2762;SDS011;1389;51.490;7.338;2022-07-01T11:15:03;97.32;;;13.55;;
2762;SDS011;1389;51.490;7.338;2022-07-01T11:17:35;98.30;;;13.33;;
2762;SDS011;1389;51.490;7.338;2022-07-01T11:20:06;99.18;;;14.20;;
2762;SDS011;1389;51.490;7.338;2022-07-01T11:22:33;96.50;;;13.00;;
2762;SDS011;1389;51.490;7.338;2022-07-01T11:25:04;98.40;;;13.30;;
2762;SDS011;1389;51.490;7.338;2022-07-01T11:27:32;96.95;;;13.30;;
2762;SDS011;1389;51.490;7.338;2022-07-01T11:30:08;96.50;;;13.00;;
2762;SDS011;1389;51.490;7.338;2022-07-01T11:32:38;96.20;;;12.60;;
2762;SDS011;1389;51.490;7.338;2022-07-01T11:35:07;98.15;;;12.30;;
2762;SDS011;1389;51.490;7.338;2022-07-01T11:38:06;98.40;;;13.10;;
2762;SDS011;1389;51.490;7.338;2022-07-01T11:40:56;97.25;;;12.60;;
2762;SDS011;1389;51.490;7.338;2022-07-01T11:43:24;97.57;;;12.40;;
2762;SDS011;1389;51.490;7.338;2022-07-01T11:45:52;96.15;;;12.65;;
2762;SDS011;1389;51.490;7.338;2022-07-01T11:51:05;97.07;;;12.50;;
2762;SDS011;1389;51.490;7.338;2022-07-01T11:53:35;96.72;;;12.60;;
2762;SDS011;1389;51.490;7.338;2022-07-01T11:56:02;95.40;;;11.30;;
2762;SDS011;1389;51.490;7.338;2022-07-01T12:01:28;100.25;;;13.80;;
2762;SDS011;1389;51.490;7.338;2022-07-01T12:04:01;95.97;;;12.43;;
2762;SDS011;1389;51.490;7.338;2022-07-01T12:06:28;96.90;;;12.52;;
2762;SDS011;1389;51.490;7.338;2022-07-01T12:08:55;96.60;;;12.00;;
2762;SDS011;1389;51.490;7.338;2022-07-01T12:11:22;97.90;;;12.40;;
2762;SDS011;1389;51.490;7.338;2022-07-01T12:13:50;97.07;;;11.90;;
2762;SDS011;1389;51.490;7.338;2022-07-01T12:16:17;97.70;;;11.85;;
2762;SDS011;1389;51.490;7.338;2022-07-01T12:18:53;96.40;;;12.70;;
2762;SDS011;1389;51.490;7.338;2022-07-01T12:21:21;98.03;;;12.20;;
2762;SDS011;1389;51.490;7.338;2022-07-01T12:24:05;99.00;;;12.05;;
2762;SDS011;1389;51.490;7.338;2022-07-01T12:26:31;96.43;;;11.60;;
2762;SDS011;1389;51.490;7.338;2022-07-01T12:28:57;96.10;;;11.63;;
2762;SDS011;1389;51.490;7.338;2022-07-01T12:31:23;96.63;;;11.65;;
2762;SDS011;1389;51.490;7.338;2022-07-01T12:33:50;97.03;;;11.20;;
2762;SDS011;1389;51.490;7.338;2022-07-01T12:36:17;97.60;;;11.20;;
2762;SDS011;1389;51.490;7.338;2022-07-01T12:38:43;95.95;;;11.00;;
2762;SDS011;1389;51.490;7.338;2022-07-01T12:44:05;98.90;;;11.15;;
2762;SDS011;1389;51.490;7.338;2022-07-01T12:46:44;95.82;;;11.10;;
2762;SDS011;1389;51.490;7.338;2022-07-01T12:49:17;100.32;;;11.50;;
2762;SDS011;1389;51.490;7.338;2022-07-01T12:51:52;101.47;;;11.30;;
2762;SDS011;1389;51.490;7.338;2022-07-01T12:54:32;96.13;;;11.20;;
2762;SDS011;1389;51.490;7.338;2022-07-01T12:57:00;95.93;;;10.80;;
2762;SDS011;1389;51.490;7.338;2022-07-01T12:59:26;97.57;;;11.20;;
2762;SDS011;1389;51.490;7.338;2022-07-01T13:01:53;97.70;;;10.70;;
2762;SDS011;1389;51.490;7.338;2022-07-01T13:04:24;95.43;;;10.80;;
2762;SDS011;1389;51.490;7.338;2022-07-01T13:06:51;97.22;;;11.10;;
2762;SDS011;1389;51.490;7.338;2022-07-01T13:09:17;94.72;;;10.40;;
2762;SDS011;1389;51.490;7.338;2022-07-01T13:11:44;96.75;;;10.80;;
2762;SDS011;1389;51.490;7.338;2022-07-01T13:14:10;94.97;;;10.40;;
2762;SDS011;1389;51.490;7.338;2022-07-01T13:16:36;96.43;;;11.15;;
2762;SDS011;1389;51.490;7.338;2022-07-01T13:19:02;96.40;;;10.80;;
2762;SDS011;1389;51.490;7.338;2022-07-01T13:21:28;96.45;;;10.60;;
2762;SDS011;1389;51.490;7.338;2022-07-01T13:23:55;94.38;;;9.85;;
2762;SDS011;1389;51.490;7.338;2022-07-01T13:26:21;94.03;;;10.00;;
2762;SDS011;1389;51.490;7.338;2022-07-01T13:28:47;94.80;;;10.70;;
2762;SDS011;1389;51.490;7.338;2022-07-01T13:31:13;96.03;;;10.83;;
2762;SDS011;1389;51.490;7.338;2022-07-01T13:33:39;95.82;;;10.50;;
2762;SDS011;1389;51.490;7.338;2022-07-01T13:36:05;94.45;;;10.80;;
2762;SDS011;1389;51.490;7.338;2022-07-01T13:38:31;96.72;;;10.50;;
2762;SDS011;1389;51.490;7.338;2022-07-01T13:40:57;96.05;;;9.90;;
2762;SDS011;1389;51.490;7.338;2022-07-01T13:43:23;94.43;;;10.30;;
2762;SDS011;1389;51.490;7.338;2022-07-01T13:45:50;93.75;;;9.75;;
2762;SDS011;1389;51.490;7.338;2022-07-01T13:48:16;101.70;;;10.20;;
2762;SDS011;1389;51.490;7.338;2022-07-01T13:50:42;98.10;;;10.00;;
2762;SDS011;1389;51.490;7.338;2022-07-01T13:53:08;92.78;;;9.60;;
2762;SDS011;1389;51.490;7.338;2022-07-01T13:55:34;94.65;;;9.70;;
2762;SDS011;1389;51.490;7.338;2022-07-01T13:58:00;93.30;;;9.40;;
2762;SDS011;1389;51.490;7.338;2022-07-01T14:00:26;96.50;;;9.40;;
2762;SDS011;1389;51.490;7.338;2022-07-01T14:02:52;94.00;;;10.00;;
2762;SDS011;1389;51.490;7.338;2022-07-01T14:05:18;92.30;;;9.43;;
2762;SDS011;1389;51.490;7.338;2022-07-01T14:07:44;93.80;;;9.40;;
2762;SDS011;1389;51.490;7.338;2022-07-01T14:10:10;93.40;;;10.25;;
2762;SDS011;1389;51.490;7.338;2022-07-01T14:12:36;92.90;;;9.70;;
2762;SDS011;1389;51.490;7.338;2022-07-01T14:15:03;96.50;;;9.63;;
2762;SDS011;1389;51.490;7.338;2022-07-01T14:17:29;94.72;;;9.95;;
2762;SDS011;1389;51.490;7.338;2022-07-01T14:19:55;98.13;;;9.30;;
2762;SDS011;1389;51.490;7.338;2022-07-01T14:22:22;93.05;;;9.40;;
2762;SDS011;1389;51.490;7.338;2022-07-01T14:24:49;95.22;;;9.88;;
2762;SDS011;1389;51.490;7.338;2022-07-01T14:27:15;96.82;;;9.43;;
2762;SDS011;1389;51.490;7.338;2022-07-01T14:29:41;93.30;;;8.90;;
2762;SDS011;1389;51.490;7.338;2022-07-01T14:32:07;95.10;;;8.85;;
2762;SDS011;1389;51.490;7.338;2022-07-01T14:34:33;93.95;;;9.20;;
2762;SDS011;1389;51.490;7.338;2022-07-01T14:37:00;94.15;;;8.90;;
2762;SDS011;1389;51.490;7.338;2022-07-01T14:39:26;92.90;;;8.90;;
2762;SDS011;1389;51.490;7.338;2022-07-01T14:41:52;93.43;;;8.90;;
2762;SDS011;1389;51.490;7.338;2022-07-01T14:44:18;92.85;;;8.93;;
2762;SDS011;1389;51.490;7.338;2022-07-01T14:46:44;94.03;;;9.30;;
2762;SDS011;1389;51.490;7.338;2022-07-01T14:49:10;93.72;;;9.40;;
2762;SDS011;1389;51.490;7.338;2022-07-01T14:51:37;94.55;;;9.00;;
2762;SDS011;1389;51.490;7.338;2022-07-01T14:54:03;93.22;;;9.18;;
2762;SDS011;1389;51.490;7.338;2022-07-01T14:56:30;93.93;;;9.18;;
2762;SDS011;1389;51.490;7.338;2022-07-01T14:58:56;92.70;;;9.10;;
2762;SDS011;1389;51.490;7.338;2022-07-01T15:01:22;93.28;;;8.93;;
2762;SDS011;1389;51.490;7.338;2022-07-01T15:03:48;93.60;;;9.00;;
2762;SDS011;1389;51.490;7.338;2022-07-01T15:06:14;92.03;;;8.70;;
2762;SDS011;1389;51.490;7.338;2022-07-01T15:08:40;92.97;;;9.13;;
2762;SDS011;1389;51.490;7.338;2022-07-01T15:11:06;94.57;;;9.10;;
2762;SDS011;1389;51.490;7.338;2022-07-01T15:13:33;95.60;;;8.80;;
2762;SDS011;1389;51.490;7.338;2022-07-01T15:16:00;92.57;;;8.87;;
2762;SDS011;1389;51.490;7.338;2022-07-01T15:18:27;94.25;;;9.27;;